sensor_id;sensor_type;location;lat;lon;timestamp;pressure;altitude;pressure_sealevel;temperature;humidity
11712;BME280;5912;51.034;6.984;2023-03-01T00:01:05;56748.97;;;-142.13;58.22
11712;BME280;5912;51.034;6.984;2023-03-01T00:03:31;56761.00;;;-142.13;58.52
11712;BME280;5912;51.034;6.984;2023-03-01T00:05:57;56759.00;;;-142.13;58.71
11712;BME280;5912;51.034;6.984;2023-03-01T00:08:22;56771.00;;;-142.13;58.95
11712;BME280;5912;51.034;6.984;2023-03-01T00:10:48;56761.00;;;-142.13;59.23
11712;BME280;5912;51.034;6.984;2023-03-01T00:13:13;56740.97;;;-142.13;59.44
11712;BME280;5912;51.034;6.984;2023-03-01T00:15:39;56767.00;;;-142.13;58.97
11712;BME280;5912;51.034;6.984;2023-03-01T00:18:06;56759.00;;;-142.13;58.76
11712;BME280;5912;51.034;6.984;2023-03-01T00:20:32;56740.97;;;-142.13;58.71
11712;BME280;5912;51.034;6.984;2023-03-01T00:22:57;56736.94;;;-142.13;58.35
11712;BME280;5912;51.034;6.984;2023-03-01T00:25:22;56724.94;;;-142.13;58.54
11712;BME280;5912;51.034;6.984;2023-03-01T00:27:48;56750.97;;;-142.13;58.67
11712;BME280;5912;51.034;6.984;2023-03-01T00:30:14;56744.97;;;-142.13;58.29
11712;BME280;5912;51.034;6.984;2023-03-01T00:32:40;56757.00;;;-142.13;58.37
11712;BME280;5912;51.034;6.984;2023-03-01T00:35:05;56783.03;;;-142.13;58.16
11712;BME280;5912;51.034;6.984;2023-03-01T00:37:31;56724.94;;;-142.13;58.07
11712;BME280;5912;51.034;6.984;2023-03-01T00:39:56;56740.97;;;-142.13;57.74
11712;BME280;5912;51.034;6.984;2023-03-01T00:42:21;56777.03;;;-142.13;58.00
11712;BME280;5912;51.034;6.984;2023-03-01T00:44:47;56734.94;;;-142.13;57.76
11712;BME280;5912;51.034;6.984;2023-03-01T00:47:12;56728.94;;;-142.13;57.40
11712;BME280;5912;51.034;6.984;2023-03-01T00:49:39;56736.94;;;-142.13;57.51
11712;BME280;5912;51.034;6.984;2023-03-01T00:52:04;56744.97;;;-142.13;57.13
11712;BME280;5912;51.034;6.984;2023-03-01T00:54:30;56775.03;;;-142.13;57.17
11712;BME280;5912;51.034;6.984;2023-03-01T00:56:55;56746.97;;;-142.13;57.13
11712;BME280;5912;51.034;6.984;2023-03-01T00:59:20;56754.97;;;-142.13;56.97
11712;BME280;5912;51.034;6.984;2023-03-01T01:01:45;56748.97;;;-142.13;56.89
11712;BME280;5912;51.034;6.984;2023-03-01T01:04:12;56748.97;;;-142.13;56.61
11712;BME280;5912;51.034;6.984;2023-03-01T01:06:40;56738.97;;;-142.13;56.79
11712;BME280;5912;51.034;6.984;2023-03-01T01:09:11;56773.00;;;-142.13;56.84
11712;BME280;5912;51.034;6.984;2023-03-01T01:11:43;56767.00;;;-142.13;56.98
11712;BME280;5912;51.034;6.984;2023-03-01T01:14:09;56750.97;;;-142.13;57.12
11712;BME280;5912;51.034;6.984;2023-03-01T01:16:35;56754.97;;;-142.13;57.57
11712;BME280;5912;51.034;6.984;2023-03-01T01:19:00;56734.94;;;-142.13;57.90
11712;BME280;5912;51.034;6.984;2023-03-01T01:21:25;56781.03;;;-142.13;58.05
11712;BME280;5912;51.034;6.984;2023-03-01T01:23:52;56763.00;;;-142.13;58.01
11712;BME280;5912;51.034;6.984;2023-03-01T01:26:28;56734.94;;;-142.13;58.33
11712;BME280;5912;51.034;6.984;2023-03-01T01:28:54;56744.97;;;-142.13;58.78
11712;BME280;5912;51.034;6.984;2023-03-01T01:31:20;56761.00;;;-142.13;58.80
11712;BME280;5912;51.034;6.984;2023-03-01T01:33:48;56752.97;;;-142.13;58.88
11712;BME280;5912;51.034;6.984;2023-03-01T01:36:14;56761.00;;;-142.13;58.78
11712;BME280;5912;51.034;6.984;2023-03-01T01:38:39;56765.00;;;-142.13;59.12
11712;BME280;5912;51.034;6.984;2023-03-01T01:41:06;56807.06;;;-142.13;58.94
11712;BME280;5912;51.034;6.984;2023-03-01T01:43:37;56750.97;;;-142.13;59.01
11712;BME280;5912;51.034;6.984;2023-03-01T01:46:31;56746.97;;;-142.13;59.80
11712;BME280;5912;51.034;6.984;2023-03-01T01:49:03;56742.97;;;-142.13;59.81
11712;BME280;5912;51.034;6.984;2023-03-01T01:51:35;56777.03;;;-142.13;60.26
11712;BME280;5912;51.034;6.984;2023-03-01T01:54:11;56744.97;;;-142.13;60.51
11712;BME280;5912;51.034;6.984;2023-03-01T01:56:38;56761.00;;;-142.13;60.95
11712;BME280;5912;51.034;6.984;2023-03-01T01:59:03;56757.00;;;-142.13;60.96
11712;BME280;5912;51.034;6.984;2023-03-01T02:01:29;56763.00;;;-142.13;61.29
11712;BME280;5912;51.034;6.984;2023-03-01T02:03:54;56761.00;;;-142.13;61.14
11712;BME280;5912;51.034;6.984;2023-03-01T02:06:27;56777.03;;;-142.13;60.79
11712;BME280;5912;51.034;6.984;2023-03-01T02:08:57;56771.00;;;-142.13;61.29
11712;BME280;5912;51.034;6.984;2023-03-01T02:11:24;56777.03;;;-142.13;61.03
11712;BME280;5912;51.034;6.984;2023-03-01T02:13:51;56779.03;;;-142.13;60.65
11712;BME280;5912;51.034;6.984;2023-03-01T02:16:18;56734.94;;;-142.13;60.72
11712;BME280;5912;51.034;6.984;2023-03-01T02:18:44;56740.97;;;-142.13;61.01
11712;BME280;5912;51.034;6.984;2023-03-01T02:23:41;56748.97;;;-142.13;61.24
11712;BME280;5912;51.034;6.984;2023-03-01T02:26:29;56740.97;;;-142.13;61.18
11712;BME280;5912;51.034;6.984;2023-03-01T02:28:57;56761.00;;;-142.13;61.53
11712;BME280;5912;51.034;6.984;2023-03-01T02:31:22;56724.94;;;-142.13;61.25
11712;BME280;5912;51.034;6.984;2023-03-01T02:34:09;56752.97;;;-142.13;61.50
11712;BME280;5912;51.034;6.984;2023-03-01T02:36:41;56771.00;;;-142.13;61.44
11712;BME280;5912;51.034;6.984;2023-03-01T02:39:14;56775.03;;;-142.13;62.17
11712;BME280;5912;51.034;6.984;2023-03-01T02:41:45;56752.97;;;-142.13;62.47
11712;BME280;5912;51.034;6.984;2023-03-01T02:44:12;56740.97;;;-142.13;62.26
11712;BME280;5912;51.034;6.984;2023-03-01T02:46:49;56744.97;;;-142.13;62.23
11712;BME280;5912;51.034;6.984;2023-03-01T02:49:26;56789.03;;;-142.13;62.07
11712;BME280;5912;51.034;6.984;2023-03-01T02:55:01;56769.00;;;-142.13;62.78
11712;BME280;5912;51.034;6.984;2023-03-01T02:57:29;56738.97;;;-142.13;63.08
11712;BME280;5912;51.034;6.984;2023-03-01T02:59:56;56775.03;;;-142.13;63.28
11712;BME280;5912;51.034;6.984;2023-03-01T03:02:25;56730.94;;;-142.13;63.18
11712;BME280;5912;51.034;6.984;2023-03-01T03:07:34;56781.03;;;-142.13;63.80
11712;BME280;5912;51.034;6.984;2023-03-01T03:10:00;56803.06;;;-142.13;63.92
11712;BME280;5912;51.034;6.984;2023-03-01T03:12:26;56787.03;;;-142.13;63.86
11712;BME280;5912;51.034;6.984;2023-03-01T03:14:51;56787.03;;;-142.13;63.98
11712;BME280;5912;51.034;6.984;2023-03-01T03:17:16;56785.03;;;-142.13;64.10
11712;BME280;5912;51.034;6.984;2023-03-01T03:19:42;56761.00;;;-142.13;64.20
11712;BME280;5912;51.034;6.984;2023-03-01T03:22:11;56779.03;;;-142.13;63.71
11712;BME280;5912;51.034;6.984;2023-03-01T03:24:37;56752.97;;;-142.13;63.97
11712;BME280;5912;51.034;6.984;2023-03-01T03:27:07;56771.00;;;-142.13;63.88
11712;BME280;5912;51.034;6.984;2023-03-01T03:29:32;56777.03;;;-142.13;64.23
11712;BME280;5912;51.034;6.984;2023-03-01T03:31:58;56777.03;;;-142.13;64.62
11712;BME280;5912;51.034;6.984;2023-03-01T03:34:24;56799.06;;;-142.13;65.04
11712;BME280;5912;51.034;6.984;2023-03-01T03:36:53;56779.03;;;-142.13;64.69
11712;BME280;5912;51.034;6.984;2023-03-01T03:39:25;56769.00;;;-142.13;64.98
11712;BME280;5912;51.034;6.984;2023-03-01T03:41:50;56793.06;;;-142.13;65.65
11712;BME280;5912;51.034;6.984;2023-03-01T03:44:16;56754.97;;;-142.13;65.19
11712;BME280;5912;51.034;6.984;2023-03-01T03:46:41;56813.09;;;-142.13;64.63
11712;BME280;5912;51.034;6.984;2023-03-01T03:49:06;56765.00;;;-142.13;65.16
11712;BME280;5912;51.034;6.984;2023-03-01T03:51:32;56773.00;;;-142.13;65.13
11712;BME280;5912;51.034;6.984;2023-03-01T03:53:57;56775.03;;;-142.13;65.36
11712;BME280;5912;51.034;6.984;2023-03-01T03:56:22;56775.03;;;-142.13;65.49
11712;BME280;5912;51.034;6.984;2023-03-01T03:58:54;56801.06;;;-142.13;65.49
11712;BME280;5912;51.034;6.984;2023-03-01T04:01:19;56777.03;;;-142.13;65.51
11712;BME280;5912;51.034;6.984;2023-03-01T04:03:44;56797.06;;;-142.13;65.79
11712;BME280;5912;51.034;6.984;2023-03-01T04:06:14;56783.03;;;-142.13;65.52
11712;BME280;5912;51.034;6.984;2023-03-01T04:08:39;56901.22;;;-142.13;65.60
11712;BME280;5912;51.034;6.984;2023-03-01T04:11:06;56777.03;;;-142.13;65.67
11712;BME280;5912;51.034;6.984;2023-03-01T04:13:51;56771.00;;;-142.13;66.05
11712;BME280;5912;51.034;6.984;2023-03-01T04:16:16;56769.00;;;-142.13;65.69
11712;BME280;5912;51.034;6.984;2023-03-01T04:18:42;56793.06;;;-142.13;66.14
11712;BME280;5912;51.034;6.984;2023-03-01T04:21:08;56783.03;;;-142.13;66.04
11712;BME280;5912;51.034;6.984;2023-03-01T04:23:34;56817.09;;;-142.13;65.84
11712;BME280;5912;51.034;6.984;2023-03-01T04:26:00;56759.00;;;-142.13;66.15
11712;BME280;5912;51.034;6.984;2023-03-01T04:28:34;56787.03;;;-142.13;66.21
11712;BME280;5912;51.034;6.984;2023-03-01T04:31:07;56767.00;;;-142.13;65.99
11712;BME280;5912;51.034;6.984;2023-03-01T04:33:43;56785.03;;;-142.13;65.66
11712;BME280;5912;51.034;6.984;2023-03-01T04:36:11;56769.00;;;-142.13;66.12
11712;BME280;5912;51.034;6.984;2023-03-01T04:38:37;56748.97;;;-142.13;66.02
11712;BME280;5912;51.034;6.984;2023-03-01T04:41:08;56791.03;;;-142.13;66.10
11712;BME280;5912;51.034;6.984;2023-03-01T04:43:34;56781.03;;;-142.13;66.24
11712;BME280;5912;51.034;6.984;2023-03-01T04:46:01;56797.06;;;-142.13;66.38
11712;BME280;5912;51.034;6.984;2023-03-01T04:48:27;56781.03;;;-142.13;66.10
11712;BME280;5912;51.034;6.984;2023-03-01T04:50:53;56793.06;;;-142.13;66.01
11712;BME280;5912;51.034;6.984;2023-03-01T04:53:18;56797.06;;;-142.13;66.54
11712;BME280;5912;51.034;6.984;2023-03-01T04:55:43;56785.03;;;-142.13;66.11
11712;BME280;5912;51.034;6.984;2023-03-01T04:58:09;56769.00;;;-142.13;66.18
11712;BME280;5912;51.034;6.984;2023-03-01T05:00:34;56736.94;;;-142.13;66.54
11712;BME280;5912;51.034;6.984;2023-03-01T05:03:00;56803.06;;;-142.13;66.52
11712;BME280;5912;51.034;6.984;2023-03-01T05:05:32;56777.03;;;-142.13;66.57
11712;BME280;5912;51.034;6.984;2023-03-01T05:08:03;56797.06;;;-142.13;66.69
11712;BME280;5912;51.034;6.984;2023-03-01T05:10:31;56799.06;;;-142.13;66.55
11712;BME280;5912;51.034;6.984;2023-03-01T05:12:58;56767.00;;;-142.13;66.80
11712;BME280;5912;51.034;6.984;2023-03-01T05:15:24;56781.03;;;-142.13;66.91
11712;BME280;5912;51.034;6.984;2023-03-01T05:17:51;56744.97;;;-142.13;66.52
11712;BME280;5912;51.034;6.984;2023-03-01T05:20:17;56773.00;;;-142.13;66.84
11712;BME280;5912;51.034;6.984;2023-03-01T05:22:42;56773.00;;;-142.13;66.66
11712;BME280;5912;51.034;6.984;2023-03-01T05:25:08;56797.06;;;-142.13;66.62
11712;BME280;5912;51.034;6.984;2023-03-01T05:27:34;56748.97;;;-142.13;66.86
11712;BME280;5912;51.034;6.984;2023-03-01T05:30:00;56797.06;;;-142.13;66.61
11712;BME280;5912;51.034;6.984;2023-03-01T05:32:38;56769.00;;;-142.13;66.54
11712;BME280;5912;51.034;6.984;2023-03-01T05:35:04;56789.03;;;-142.13;66.62
11712;BME280;5912;51.034;6.984;2023-03-01T05:37:29;56783.03;;;-142.13;66.70
11712;BME280;5912;51.034;6.984;2023-03-01T05:39:55;56761.00;;;-142.13;66.81
11712;BME280;5912;51.034;6.984;2023-03-01T05:42:20;56823.09;;;-142.13;66.65
11712;BME280;5912;51.034;6.984;2023-03-01T05:44:45;56817.09;;;-142.13;66.99
11712;BME280;5912;51.034;6.984;2023-03-01T05:47:10;56793.06;;;-142.13;67.13
11712;BME280;5912;51.034;6.984;2023-03-01T05:49:36;56799.06;;;-142.13;67.06
11712;BME280;5912;51.034;6.984;2023-03-01T05:52:01;56799.06;;;-142.13;66.99
11712;BME280;5912;51.034;6.984;2023-03-01T05:54:26;56795.06;;;-142.13;67.21
11712;BME280;5912;51.034;6.984;2023-03-01T05:56:52;56827.09;;;-142.13;67.20
11712;BME280;5912;51.034;6.984;2023-03-01T05:59:17;56761.00;;;-142.13;67.12
11712;BME280;5912;51.034;6.984;2023-03-01T06:01:43;56773.00;;;-142.13;67.21
11712;BME280;5912;51.034;6.984;2023-03-01T06:04:08;56791.03;;;-142.13;67.12
11712;BME280;5912;51.034;6.984;2023-03-01T06:06:35;56795.06;;;-142.13;66.78
11712;BME280;5912;51.034;6.984;2023-03-01T06:09:05;56777.03;;;-142.13;67.18
11712;BME280;5912;51.034;6.984;2023-03-01T06:11:33;56795.06;;;-142.13;67.09
11712;BME280;5912;51.034;6.984;2023-03-01T06:13:59;56740.97;;;-142.13;66.69
11712;BME280;5912;51.034;6.984;2023-03-01T06:16:24;56785.03;;;-142.13;67.08
11712;BME280;5912;51.034;6.984;2023-03-01T06:18:49;56807.06;;;-142.13;67.10
11712;BME280;5912;51.034;6.984;2023-03-01T06:21:15;56789.03;;;-142.13;67.36
11712;BME280;5912;51.034;6.984;2023-03-01T06:23:40;56789.03;;;-142.13;66.67
11712;BME280;5912;51.034;6.984;2023-03-01T06:26:07;56767.00;;;-142.13;67.21
11712;BME280;5912;51.034;6.984;2023-03-01T06:28:33;56767.00;;;-142.13;67.28
11712;BME280;5912;51.034;6.984;2023-03-01T06:30:58;56767.00;;;-142.13;67.23
11712;BME280;5912;51.034;6.984;2023-03-01T06:33:23;56771.00;;;-142.13;66.97
11712;BME280;5912;51.034;6.984;2023-03-01T06:35:49;56781.03;;;-142.13;67.13
11712;BME280;5912;51.034;6.984;2023-03-01T06:38:15;56779.03;;;-142.13;67.29
11712;BME280;5912;51.034;6.984;2023-03-01T06:40:42;56781.03;;;-142.13;67.05
11712;BME280;5912;51.034;6.984;2023-03-01T06:43:07;56783.03;;;-142.13;66.82
11712;BME280;5912;51.034;6.984;2023-03-01T06:45:33;56791.03;;;-142.13;66.85
11712;BME280;5912;51.034;6.984;2023-03-01T06:48:06;56775.03;;;-142.13;66.43
11712;BME280;5912;51.034;6.984;2023-03-01T06:50:31;56787.03;;;-142.13;66.86
11712;BME280;5912;51.034;6.984;2023-03-01T06:52:57;56757.00;;;-142.13;66.66
11712;BME280;5912;51.034;6.984;2023-03-01T06:55:22;56752.97;;;-142.13;66.92
11712;BME280;5912;51.034;6.984;2023-03-01T06:57:47;56750.97;;;-142.13;66.54
11712;BME280;5912;51.034;6.984;2023-03-01T07:00:13;56783.03;;;-142.13;66.21
11712;BME280;5912;51.034;6.984;2023-03-01T07:02:39;56757.00;;;-142.13;66.28
11712;BME280;5912;51.034;6.984;2023-03-01T07:05:04;56793.06;;;-142.13;66.69
11712;BME280;5912;51.034;6.984;2023-03-01T07:07:30;56775.03;;;-142.13;66.33
11712;BME280;5912;51.034;6.984;2023-03-01T07:09:55;56767.00;;;-142.13;66.21
11712;BME280;5912;51.034;6.984;2023-03-01T07:12:20;56781.03;;;-142.13;66.60
11712;BME280;5912;51.034;6.984;2023-03-01T07:14:46;56779.03;;;-142.13;66.20
11712;BME280;5912;51.034;6.984;2023-03-01T07:17:11;56761.00;;;-142.13;66.19
11712;BME280;5912;51.034;6.984;2023-03-01T07:19:36;56757.00;;;-142.13;66.21
11712;BME280;5912;51.034;6.984;2023-03-01T07:22:03;56740.97;;;-142.13;65.89
11712;BME280;5912;51.034;6.984;2023-03-01T07:24:29;56724.94;;;-142.13;65.51
11712;BME280;5912;51.034;6.984;2023-03-01T07:26:54;56773.00;;;-142.13;65.68
11712;BME280;5912;51.034;6.984;2023-03-01T07:29:20;56740.97;;;-142.13;65.03
11712;BME280;5912;51.034;6.984;2023-03-01T07:31:45;56746.97;;;-142.13;64.69
11712;BME280;5912;51.034;6.984;2023-03-01T07:34:11;56761.00;;;-142.13;64.55
11712;BME280;5912;51.034;6.984;2023-03-01T07:36:37;56773.00;;;-142.13;64.00
11712;BME280;5912;51.034;6.984;2023-03-01T07:39:03;56759.00;;;-142.13;63.10
11712;BME280;5912;51.034;6.984;2023-03-01T07:41:29;56748.97;;;-142.13;62.83
11712;BME280;5912;51.034;6.984;2023-03-01T07:43:54;56765.00;;;-142.13;62.41
11712;BME280;5912;51.034;6.984;2023-03-01T07:46:20;56763.00;;;-142.13;62.09
11712;BME280;5912;51.034;6.984;2023-03-01T07:48:45;56750.97;;;-142.13;60.90
11712;BME280;5912;51.034;6.984;2023-03-01T07:51:10;56734.94;;;-142.13;59.66
11712;BME280;5912;51.034;6.984;2023-03-01T07:53:36;56728.94;;;-142.13;58.94
11712;BME280;5912;51.034;6.984;2023-03-01T07:56:10;56704.91;;;-142.13;57.27
11712;BME280;5912;51.034;6.984;2023-03-01T07:58:38;56708.91;;;-142.13;56.48
11712;BME280;5912;51.034;6.984;2023-03-01T08:01:05;56704.91;;;-142.13;54.93
11712;BME280;5912;51.034;6.984;2023-03-01T08:03:32;56694.88;;;-142.13;54.96
11712;BME280;5912;51.034;6.984;2023-03-01T08:06:06;56676.84;;;-142.13;53.81
11712;BME280;5912;51.034;6.984;2023-03-01T08:08:32;56684.88;;;-142.13;53.93
11712;BME280;5912;51.034;6.984;2023-03-01T08:10:59;56702.91;;;-142.13;51.75
11712;BME280;5912;51.034;6.984;2023-03-01T08:13:25;56672.84;;;-142.13;50.75
11712;BME280;5912;51.034;6.984;2023-03-01T08:15:51;56668.84;;;-142.13;49.45
11712;BME280;5912;51.034;6.984;2023-03-01T08:18:17;56672.84;;;-142.13;47.63
11712;BME280;5912;51.034;6.984;2023-03-01T08:20:43;56676.84;;;-142.13;45.96
11712;BME280;5912;51.034;6.984;2023-03-01T08:23:09;56620.75;;;-142.13;44.80
11712;BME280;5912;51.034;6.984;2023-03-01T08:25:34;56626.78;;;-142.13;44.95
11712;BME280;5912;51.034;6.984;2023-03-01T08:28:00;56630.78;;;-142.13;43.34
11712;BME280;5912;51.034;6.984;2023-03-01T08:30:25;56594.72;;;-142.13;42.60
11712;BME280;5912;51.034;6.984;2023-03-01T08:32:51;56526.59;;;-142.13;42.41
11712;BME280;5912;51.034;6.984;2023-03-01T08:35:17;56564.66;;;-142.13;41.57
11712;BME280;5912;51.034;6.984;2023-03-01T08:37:42;56560.66;;;-142.13;41.54
11712;BME280;5912;51.034;6.984;2023-03-01T08:40:08;56594.72;;;-142.13;40.55
11712;BME280;5912;51.034;6.984;2023-03-01T08:42:35;56560.66;;;-142.13;39.37
11712;BME280;5912;51.034;6.984;2023-03-01T08:45:01;56538.63;;;-142.13;38.71
11712;BME280;5912;51.034;6.984;2023-03-01T08:47:26;56540.63;;;-142.13;37.78
11712;BME280;5912;51.034;6.984;2023-03-01T08:49:51;56580.69;;;-142.13;38.19
11712;BME280;5912;51.034;6.984;2023-03-01T08:52:18;56572.69;;;-142.13;37.56
11712;BME280;5912;51.034;6.984;2023-03-01T08:54:43;56572.69;;;-142.13;37.59
11712;BME280;5912;51.034;6.984;2023-03-01T08:57:09;56568.66;;;-142.13;37.27
11712;BME280;5912;51.034;6.984;2023-03-01T08:59:34;56522.59;;;-142.13;37.99
11712;BME280;5912;51.034;6.984;2023-03-01T09:02:05;56516.59;;;-142.13;37.47
11712;BME280;5912;51.034;6.984;2023-03-01T09:04:35;56538.63;;;-142.13;37.22
11712;BME280;5912;51.034;6.984;2023-03-01T09:07:00;56496.56;;;-142.13;36.13
11712;BME280;5912;51.034;6.984;2023-03-01T09:09:25;56514.59;;;-142.13;35.84
11712;BME280;5912;51.034;6.984;2023-03-01T09:11:51;56526.59;;;-142.13;35.31
11712;BME280;5912;51.034;6.984;2023-03-01T09:14:16;56500.56;;;-142.13;34.91
11712;BME280;5912;51.034;6.984;2023-03-01T09:16:42;56524.59;;;-142.13;34.49
11712;BME280;5912;51.034;6.984;2023-03-01T09:19:07;56502.56;;;-142.13;35.05
11712;BME280;5912;51.034;6.984;2023-03-01T09:21:32;56512.59;;;-142.13;34.50
11712;BME280;5912;51.034;6.984;2023-03-01T09:23:58;56508.56;;;-142.13;34.35
11712;BME280;5912;51.034;6.984;2023-03-01T09:26:24;56494.56;;;-142.13;34.54
11712;BME280;5912;51.034;6.984;2023-03-01T09:28:53;56500.56;;;-142.13;34.46
11712;BME280;5912;51.034;6.984;2023-03-01T09:31:20;56488.53;;;-142.13;34.10
11712;BME280;5912;51.034;6.984;2023-03-01T09:33:48;56492.53;;;-142.13;33.67
11712;BME280;5912;51.034;6.984;2023-03-01T09:36:17;56448.47;;;-142.13;32.98
11712;BME280;5912;51.034;6.984;2023-03-01T09:38:42;56458.50;;;-142.13;32.60
11712;BME280;5912;51.034;6.984;2023-03-01T09:44:02;56460.50;;;-142.13;32.92
11712;BME280;5912;51.034;6.984;2023-03-01T09:46:33;56474.53;;;-142.13;32.18
11712;BME280;5912;51.034;6.984;2023-03-01T09:49:12;56448.47;;;-142.13;31.99
11712;BME280;5912;51.034;6.984;2023-03-01T09:51:39;56462.50;;;-142.13;32.20
11712;BME280;5912;51.034;6.984;2023-03-01T09:54:06;56448.47;;;-142.13;32.06
11712;BME280;5912;51.034;6.984;2023-03-01T09:56:34;56456.50;;;-142.13;32.17
11712;BME280;5912;51.034;6.984;2023-03-01T09:59:23;56416.44;;;-142.13;31.25
11712;BME280;5912;51.034;6.984;2023-03-01T10:02:21;56446.47;;;-142.13;30.51
11712;BME280;5912;51.034;6.984;2023-03-01T10:04:50;56404.41;;;-142.13;30.55
11712;BME280;5912;51.034;6.984;2023-03-01T10:07:44;56428.44;;;-142.13;30.32
11712;BME280;5912;51.034;6.984;2023-03-01T10:10:27;56540.63;;;-142.13;30.11
11712;BME280;5912;51.034;6.984;2023-03-01T10:12:54;56382.38;;;-142.13;29.13
11712;BME280;5912;51.034;6.984;2023-03-01T10:15:37;56402.41;;;-142.13;29.36
11712;BME280;5912;51.034;6.984;2023-03-01T10:18:12;56408.41;;;-142.13;29.29
11712;BME280;5912;51.034;6.984;2023-03-01T10:20:46;56418.44;;;-142.13;29.22
11712;BME280;5912;51.034;6.984;2023-03-01T10:23:13;56356.31;;;-142.13;29.42
11712;BME280;5912;51.034;6.984;2023-03-01T10:26:01;56412.41;;;-142.13;29.22
11712;BME280;5912;51.034;6.984;2023-03-01T10:28:51;56396.41;;;-142.13;29.15
11712;BME280;5912;51.034;6.984;2023-03-01T10:31:23;56376.34;;;-142.13;29.53
11712;BME280;5912;51.034;6.984;2023-03-01T10:33:53;56374.34;;;-142.13;29.20
11712;BME280;5912;51.034;6.984;2023-03-01T10:36:20;56364.34;;;-142.13;29.07
11712;BME280;5912;51.034;6.984;2023-03-01T10:38:56;56366.34;;;-142.13;28.70
11712;BME280;5912;51.034;6.984;2023-03-01T10:41:26;56354.31;;;-142.13;28.17
11712;BME280;5912;51.034;6.984;2023-03-01T10:43:54;56338.31;;;-142.13;27.81
11712;BME280;5912;51.034;6.984;2023-03-01T10:46:30;56364.34;;;-142.13;27.51
11712;BME280;5912;51.034;6.984;2023-03-01T10:51:41;56312.25;;;-142.13;27.36
11712;BME280;5912;51.034;6.984;2023-03-01T10:57:09;56300.25;;;-142.13;26.98
11712;BME280;5912;51.034;6.984;2023-03-01T11:00:02;56296.22;;;-142.13;27.14
11712;BME280;5912;51.034;6.984;2023-03-01T11:02:30;56312.25;;;-142.13;26.78
11712;BME280;5912;51.034;6.984;2023-03-01T11:07:55;56272.19;;;-142.13;26.34
11712;BME280;5912;51.034;6.984;2023-03-01T11:10:33;56296.22;;;-142.13;26.12
11712;BME280;5912;51.034;6.984;2023-03-01T11:13:25;56292.22;;;-142.13;26.58
11712;BME280;5912;51.034;6.984;2023-03-01T11:16:02;56276.19;;;-142.13;25.95
11712;BME280;5912;51.034;6.984;2023-03-01T11:18:30;56280.22;;;-142.13;26.12
11712;BME280;5912;51.034;6.984;2023-03-01T11:20:56;56264.19;;;-142.13;26.01
11712;BME280;5912;51.034;6.984;2023-03-01T11:23:24;56286.22;;;-142.13;25.38
11712;BME280;5912;51.034;6.984;2023-03-01T11:25:55;56298.22;;;-142.13;26.09
11712;BME280;5912;51.034;6.984;2023-03-01T11:28:21;56278.19;;;-142.13;26.49
11712;BME280;5912;51.034;6.984;2023-03-01T11:30:54;56262.19;;;-142.13;25.77
11712;BME280;5912;51.034;6.984;2023-03-01T11:38:35;56322.28;;;-142.13;24.87
11712;BME280;5912;51.034;6.984;2023-03-01T11:41:06;56256.16;;;-142.13;24.73
11712;BME280;5912;51.034;6.984;2023-03-01T11:43:37;56282.22;;;-142.13;24.75
11712;BME280;5912;51.034;6.984;2023-03-01T11:54:33;56204.09;;;-142.13;24.45
11712;BME280;5912;51.034;6.984;2023-03-01T12:05:49;56256.16;;;-142.13;24.95
11712;BME280;5912;51.034;6.984;2023-03-01T12:08:41;56228.13;;;-142.13;25.17
11712;BME280;5912;51.034;6.984;2023-03-01T12:11:39;56248.16;;;-142.13;24.92
11712;BME280;5912;51.034;6.984;2023-03-01T12:17:25;56240.16;;;-142.13;25.22
11712;BME280;5912;51.034;6.984;2023-03-01T12:22:58;56296.22;;;-142.13;26.33
11712;BME280;5912;51.034;6.984;2023-03-01T12:25:33;56304.25;;;-142.13;26.21
11712;BME280;5912;51.034;6.984;2023-03-01T12:33:59;56416.44;;;-142.13;28.67
11712;BME280;5912;51.034;6.984;2023-03-01T12:39:24;56424.44;;;-142.13;29.67
11712;BME280;5912;51.034;6.984;2023-03-01T12:44:59;56416.44;;;-142.13;30.34
11712;BME280;5912;51.034;6.984;2023-03-01T12:47:40;56426.44;;;-142.13;30.12
11712;BME280;5912;51.034;6.984;2023-03-01T12:50:36;56412.41;;;-142.13;30.10
11712;BME280;5912;51.034;6.984;2023-03-01T12:53:03;56440.47;;;-142.13;30.54
11712;BME280;5912;51.034;6.984;2023-03-01T12:55:32;56450.47;;;-142.13;30.54
11712;BME280;5912;51.034;6.984;2023-03-01T13:05:47;56448.47;;;-142.13;30.56
11712;BME280;5912;51.034;6.984;2023-03-01T13:08:25;56442.47;;;-142.13;30.26
11712;BME280;5912;51.034;6.984;2023-03-01T13:10:59;56464.50;;;-142.13;30.68
11712;BME280;5912;51.034;6.984;2023-03-01T13:13:27;56444.47;;;-142.13;31.05
11712;BME280;5912;51.034;6.984;2023-03-01T13:15:53;56420.44;;;-142.13;31.01
11712;BME280;5912;51.034;6.984;2023-03-01T13:20:46;56456.50;;;-142.13;30.10
11712;BME280;5912;51.034;6.984;2023-03-01T13:23:27;56416.44;;;-142.13;29.79
11712;BME280;5912;51.034;6.984;2023-03-01T13:31:10;56434.44;;;-142.13;29.48
11712;BME280;5912;51.034;6.984;2023-03-01T13:36:06;56346.31;;;-142.13;27.77
11712;BME280;5912;51.034;6.984;2023-03-01T13:46:52;56236.13;;;-142.13;25.29
11712;BME280;5912;51.034;6.984;2023-03-01T13:49:20;56232.13;;;-142.13;24.73
11712;BME280;5912;51.034;6.984;2023-03-01T13:51:47;56222.13;;;-142.13;23.96
11712;BME280;5912;51.034;6.984;2023-03-01T13:54:14;56208.09;;;-142.13;23.28
11712;BME280;5912;51.034;6.984;2023-03-01T13:56:41;56164.03;;;-142.13;23.45
11712;BME280;5912;51.034;6.984;2023-03-01T13:59:19;56182.06;;;-142.13;23.26
11712;BME280;5912;51.034;6.984;2023-03-01T14:01:56;56184.06;;;-142.13;23.42
11712;BME280;5912;51.034;6.984;2023-03-01T14:04:31;56198.06;;;-142.13;24.32
11712;BME280;5912;51.034;6.984;2023-03-01T14:07:20;56172.03;;;-142.13;24.20
11712;BME280;5912;51.034;6.984;2023-03-01T14:09:52;56176.03;;;-142.13;24.33
11712;BME280;5912;51.034;6.984;2023-03-01T14:17:44;56202.09;;;-142.13;23.89
11712;BME280;5912;51.034;6.984;2023-03-01T14:20:15;56184.06;;;-142.13;24.38
11712;BME280;5912;51.034;6.984;2023-03-01T14:22:41;56172.03;;;-142.13;24.35
11712;BME280;5912;51.034;6.984;2023-03-01T14:25:26;56176.03;;;-142.13;24.33
11712;BME280;5912;51.034;6.984;2023-03-01T14:27:59;56204.09;;;-142.13;24.87
11712;BME280;5912;51.034;6.984;2023-03-01T14:30:27;56178.03;;;-142.13;24.30